Asheville Regional Airport
KAVL : now visible

Airfield :











YOU CAN JOIN US ON...

 
LOGIN :

Register | Disclaimer

   EN    FR    IT 

 









Legend :    VFR   Marginal VFR   IFR   Intensive IFR   Very Intensive IFR
Visi :
Ceiling :
>= 8 km
>= 3000ft
5 to 8 km
1000 to 3000 ft
1500m to 5 km
500 to 1000 ft
800 to 1500m
200 to 500 ft
< 800m
< 200 ft
Symbols :   Thunderstorms  Fog  Heavy snow  Heavy precipitations  Wind > 20 kt






- Airport Elevation : 2165 ft
- IATA code : AVL


KAVL - Asheville Regional

CURRENT METAR :
  • 041554Z 32004KT 10SM CLR 25/19 A3006 RMK AO2 SLP151 T02500194

EXPIRED METARs :
  • 041454Z VRB03KT 10SM SCT007 21/18 A3006 RMK AO2 SLP157 T02110183 53005
  • 041401Z 26003KT 8SM OVC005 19/18 A3005 RMK AO2 CIG 003V007 T01940178
  • 041354Z 00000KT 7SM OVC004 19/18 A3005 RMK AO2 SLP154 T01890178
  • 041334Z 18003KT 6SM BR OVC005 19/18 A3005 RMK AO2 T01890178

TAF KAVL
Valid from the 04 at 14:00 until the 05 at 12:00 UTC


041400Z 0414/0512 20004KT P6SM BKN005
FM041500 33005KT P6SM SCT012
FM041700 31005KT P6SM VCSH FEW045 SCT060
TEMPO 0419/0423 4SM TSRA OVC035CB
FM050900 00000KT 2SM BR BKN004
KZTL FIR / North America



MET'MAP, your aeronautical weather chart ! - Copyright ORBIFLY December 2007 - Disclaimer

ORBIFLY MET'MAP TEAM :

Programming & Development : Alexandra Zaïnal
Concept & original design : Baudouin d'Aumeries
Assistance for programming : Marc-Olivier Méhu
Technical & hardware support : Manuel Goepfert

Contact : metmap@orbifly.com




SOURCES & CREDITS :

   NOAA       Earth
Advisory